createdAt,value
2024-02-22T00:00:58.587Z,12.50
2024-02-22T01:33:04.613Z,12.79
2024-02-22T01:43:51.438Z,12.97
2024-02-22T02:08:08.073Z,12.91
2024-02-22T02:10:55.534Z,12.53
2024-02-22T02:13:41.308Z,12.92
2024-02-22T02:16:29.933Z,12.91
2024-02-22T02:22:34.901Z,12.92
2024-02-22T02:25:21.443Z,12.59
2024-02-22T02:28:07.678Z,12.92
2024-02-22T02:39:02.517Z,13.06
2024-02-22T02:41:48.214Z,13.00
2024-02-22T02:44:33.731Z,12.88
2024-02-22T02:47:20.399Z,13.12
2024-02-22T02:50:08.459Z,12.82
2024-02-22T02:52:59.310Z,12.65
2024-02-22T02:55:44.782Z,13.13
2024-02-22T02:58:30.398Z,12.68
2024-02-22T03:04:22.656Z,12.89
2024-02-22T03:07:10.145Z,12.78
2024-02-22T03:09:56.724Z,12.60
2024-02-22T03:15:28.157Z,12.66
2024-02-22T03:18:14.851Z,12.80
2024-02-22T03:21:01.864Z,12.89
2024-02-22T03:23:54.398Z,12.31
2024-02-22T03:26:40.077Z,12.61
2024-02-22T03:29:27.594Z,12.68
2024-02-22T03:32:13.021Z,12.11
2024-02-22T03:35:00.193Z,12.11
2024-02-22T03:37:45.864Z,12.89
2024-02-22T03:40:37.608Z,12.83
2024-02-22T03:56:54.681Z,12.59
2024-02-22T03:59:48.824Z,12.90
2024-02-22T04:05:17.310Z,12.93
2024-02-22T04:08:03.566Z,12.62
2024-02-22T04:10:49.351Z,12.46
2024-02-22T04:13:38.546Z,12.63
2024-02-22T04:16:24.356Z,12.72
2024-02-22T04:19:10.391Z,12.84
2024-02-22T04:24:32.480Z,12.76
2024-02-22T04:27:18.100Z,12.89
2024-02-22T04:30:04.419Z,12.57
2024-02-22T04:32:50.157Z,12.81
2024-02-22T04:35:36.450Z,12.71
2024-02-22T04:38:23.723Z,12.75
2024-02-22T04:41:10.509Z,12.62
2024-02-22T04:43:56.136Z,12.69
2024-02-22T04:49:45.680Z,12.60
2024-02-22T04:52:31.697Z,12.64
2024-02-22T04:55:18.724Z,12.55
2024-02-22T04:58:05.745Z,12.53
2024-02-22T05:00:51.396Z,12.73
2024-02-22T05:03:36.862Z,12.40
2024-02-22T05:06:23.266Z,12.26
2024-02-22T05:09:13.765Z,12.47
2024-02-22T05:11:59.358Z,11.97
2024-02-22T05:14:45.989Z,12.58
2024-02-22T05:17:31.593Z,11.95
2024-02-22T05:20:19.449Z,12.49
2024-02-22T05:23:06.947Z,12.56
2024-02-22T05:25:54.712Z,12.43
2024-02-22T05:28:43.244Z,12.46
2024-02-22T05:31:29.997Z,12.31
2024-02-22T05:34:18.509Z,12.57
2024-02-22T05:37:09.430Z,12.53
2024-02-22T05:39:56.768Z,12.58
2024-02-22T05:42:43.062Z,12.34
2024-02-22T05:45:50.473Z,12.42
2024-02-22T05:48:35.716Z,12.76
2024-02-22T05:51:21.619Z,12.60
2024-02-22T05:54:12.596Z,12.67
2024-02-22T05:56:58.208Z,12.58
2024-02-22T05:59:43.657Z,12.68
2024-02-22T06:02:31.248Z,12.43
2024-02-22T06:05:22.171Z,12.73
2024-02-22T06:08:08.735Z,12.74
2024-02-22T06:10:59.085Z,12.50
2024-02-22T06:13:47.169Z,12.76
2024-02-22T06:16:36.344Z,12.35
2024-02-22T06:19:21.599Z,12.76
2024-02-22T06:22:07.156Z,12.66
2024-02-22T06:24:52.734Z,12.28
2024-02-22T06:27:42.820Z,12.66
2024-02-22T06:30:28.915Z,12.51
2024-02-22T06:33:17.430Z,12.69
2024-02-22T06:36:03.401Z,12.68
2024-02-22T06:38:51.679Z,12.80
2024-02-22T06:41:37.606Z,12.73
2024-02-22T06:44:23.147Z,12.77
2024-02-22T06:47:08.646Z,12.76
2024-02-22T06:49:54.315Z,12.66
2024-02-22T06:52:54.887Z,12.73
2024-02-22T06:55:41.105Z,12.62
2024-02-22T06:58:26.911Z,12.64
2024-02-22T07:01:15.351Z,12.77
2024-02-22T07:04:01.666Z,12.71
2024-02-22T07:06:46.895Z,12.37
2024-02-22T07:09:32.749Z,12.55
2024-02-22T07:12:18.947Z,12.28
2024-02-22T07:15:11.962Z,12.56
2024-02-22T07:17:57.733Z,12.78
2024-02-22T07:20:43.572Z,12.68
2024-02-22T07:23:29.159Z,12.58
2024-02-22T07:26:15.327Z,12.70
2024-02-22T07:29:13.859Z,12.73
2024-02-22T07:32:02.559Z,12.49
2024-02-22T07:34:49.969Z,12.77
2024-02-22T07:37:38.914Z,12.58
2024-02-22T07:40:24.659Z,12.64
2024-02-22T07:43:11.158Z,12.28
2024-02-22T07:45:58.677Z,12.08
2024-02-22T07:48:44.717Z,12.19
2024-02-22T07:51:33.479Z,11.62
2024-02-22T07:54:21.547Z,12.38
2024-02-22T08:02:32.541Z,12.30
2024-02-22T08:05:18.579Z,12.62
2024-02-22T08:10:46.118Z,12.60
2024-02-22T08:27:19.061Z,12.51
2024-02-22T08:38:28.692Z,12.43
2024-02-22T08:41:24.130Z,12.48
2024-02-22T08:44:09.916Z,12.60
2024-02-22T08:46:55.298Z,12.71
2024-02-22T08:49:40.940Z,12.65
2024-02-22T08:52:26.491Z,12.59
2024-02-22T09:22:03.927Z,14.87
2024-02-22T09:24:49.173Z,15.20
2024-02-22T09:27:34.835Z,15.13
2024-02-22T09:30:22.272Z,15.96
2024-02-22T09:33:09.259Z,16.33
2024-02-22T09:35:54.944Z,16.76
2024-02-22T09:38:40.593Z,16.40
2024-02-22T09:41:30.447Z,15.93
2024-02-22T09:44:16.208Z,15.70
2024-02-22T09:47:04.372Z,15.03
2024-02-22T09:57:58.200Z,14.13
2024-02-22T10:00:47.368Z,13.28
2024-02-22T10:06:23.508Z,13.09
2024-02-22T10:11:47.105Z,12.82
2024-02-22T10:17:11.520Z,13.06
2024-02-22T10:20:08.744Z,12.56
2024-02-22T10:31:06.496Z,12.77
2024-02-22T10:39:13.096Z,13.54
2024-02-22T10:42:00.410Z,13.14
2024-02-22T10:44:48.204Z,13.35
2024-02-22T10:52:59.265Z,13.66
2024-02-22T10:58:27.539Z,13.37
2024-02-22T11:01:15.366Z,12.87
2024-02-22T11:04:04.281Z,13.26
2024-02-22T11:06:50.245Z,13.69
2024-02-22T11:09:42.902Z,13.59
2024-02-22T11:12:32.375Z,13.19
2024-02-22T11:20:42.367Z,13.42
2024-02-22T11:23:35.143Z,12.82
2024-02-22T11:26:20.615Z,13.06
2024-02-22T11:29:06.911Z,13.14
2024-02-22T11:31:52.355Z,13.43
2024-02-22T11:34:38.095Z,13.45
2024-02-22T11:37:23.662Z,13.48
2024-02-22T11:40:11.661Z,13.45
2024-02-22T11:42:57.557Z,13.48
2024-02-22T11:45:43.056Z,13.51
2024-02-22T11:48:29.965Z,13.00
2024-02-22T11:51:15.542Z,13.25
2024-02-22T11:54:00.751Z,13.45
2024-02-22T11:56:47.013Z,13.78
2024-02-22T11:59:32.960Z,13.71
2024-02-22T12:02:19.948Z,13.78
2024-02-22T12:05:08.488Z,14.08
2024-02-22T12:07:54.530Z,14.14
2024-02-22T12:10:43.184Z,14.17
2024-02-22T12:13:28.720Z,14.04
2024-02-22T12:16:14.829Z,14.07
2024-02-22T12:19:00.765Z,13.67
2024-02-22T12:21:50.327Z,14.07
2024-02-22T12:24:36.058Z,14.18
2024-02-22T12:27:21.731Z,14.25
2024-02-22T12:30:07.733Z,14.12
2024-02-22T12:32:53.880Z,14.32
2024-02-22T12:35:39.498Z,14.42
2024-02-22T12:38:24.984Z,14.41
2024-02-22T12:41:10.220Z,14.18
2024-02-22T12:43:57.319Z,14.31
2024-02-22T12:46:43.225Z,13.84
2024-02-22T12:49:30.124Z,13.65
2024-02-22T12:52:15.546Z,13.81
2024-02-22T12:55:01.328Z,14.15
2024-02-22T12:57:46.610Z,14.00
2024-02-22T13:00:36.131Z,14.11
2024-02-22T13:03:25.121Z,14.41
2024-02-22T13:06:12.848Z,14.43
2024-02-22T13:08:58.168Z,14.58
2024-02-22T13:11:43.812Z,14.49
2024-02-22T13:14:28.993Z,14.56
2024-02-22T13:17:14.571Z,14.30
2024-02-22T13:20:00.118Z,14.46
2024-02-22T13:22:45.500Z,14.36
2024-02-22T13:25:31.014Z,14.19
2024-02-22T13:28:16.521Z,14.07
2024-02-22T13:31:02.234Z,14.12
2024-02-22T13:33:49.462Z,14.23
2024-02-22T13:36:35.582Z,14.21
2024-02-22T13:39:20.697Z,14.32
2024-02-22T13:42:06.475Z,14.49
2024-02-22T13:44:51.899Z,14.18
2024-02-22T13:47:37.152Z,14.03
2024-02-22T13:50:23.925Z,14.09
2024-02-22T13:53:09.757Z,14.05
2024-02-22T13:55:55.132Z,14.10
2024-02-22T13:58:41.081Z,14.42
2024-02-22T14:01:26.463Z,14.41
2024-02-22T14:04:11.741Z,14.36
2024-02-22T14:06:57.444Z,14.12
2024-02-22T14:09:42.914Z,14.46
2024-02-22T14:12:29.239Z,14.43
2024-02-22T14:15:14.528Z,14.41
2024-02-22T14:18:00.087Z,14.34
2024-02-22T14:20:46.677Z,14.42
2024-02-22T14:23:32.043Z,14.42
2024-02-22T14:26:17.484Z,14.57
2024-02-22T14:29:03.172Z,14.35
2024-02-22T14:31:50.436Z,14.29
2024-02-22T14:34:36.157Z,14.21
2024-02-22T14:37:21.203Z,14.20
2024-02-22T14:40:08.495Z,14.02
2024-02-22T14:42:53.704Z,14.31
2024-02-22T14:45:39.150Z,14.18
2024-02-22T14:48:24.662Z,14.11
2024-02-22T14:51:26.819Z,13.78
2024-02-22T14:54:12.430Z,13.56
2024-02-22T14:56:57.639Z,13.96
2024-02-22T14:59:42.765Z,14.34
2024-02-22T15:02:29.965Z,14.29
2024-02-22T15:05:16.011Z,14.59
2024-02-22T15:08:01.502Z,14.49
2024-02-22T15:10:47.268Z,14.53
2024-02-22T15:13:32.542Z,14.33
2024-02-22T15:16:18.145Z,14.26
2024-02-22T15:19:03.951Z,14.15
2024-02-22T15:21:49.156Z,14.41
2024-02-22T15:24:37.764Z,14.50
2024-02-22T15:27:25.170Z,14.50
2024-02-22T15:30:11.658Z,14.41
2024-02-22T15:32:57.897Z,14.35
2024-02-22T15:35:43.427Z,14.49
2024-02-22T15:38:28.555Z,14.51
2024-02-22T15:41:14.150Z,14.66
2024-02-22T15:44:00.668Z,14.62
2024-02-22T15:46:46.628Z,14.81
2024-02-22T15:49:32.149Z,14.54
2024-02-22T15:52:17.403Z,14.69
2024-02-22T15:55:02.744Z,14.65
2024-02-22T15:57:49.282Z,14.50
2024-02-22T16:00:34.717Z,14.61
2024-02-22T16:03:20.233Z,14.64
2024-02-22T16:06:08.113Z,14.71
2024-02-22T16:08:56.747Z,14.73
2024-02-22T16:11:42.417Z,14.41
2024-02-22T16:14:28.606Z,14.81
2024-02-22T16:17:14.242Z,14.85
2024-02-22T16:20:03.380Z,14.56
2024-02-22T16:22:48.928Z,14.54
2024-02-22T16:25:34.589Z,14.70
2024-02-22T16:28:21.507Z,14.75
2024-02-22T16:31:12.880Z,14.72
2024-02-22T16:33:59.535Z,14.92
2024-02-22T16:36:45.166Z,14.85
2024-02-22T16:39:37.762Z,14.61
2024-02-22T16:42:26.599Z,14.74
2024-02-22T16:45:12.091Z,14.39
2024-02-22T16:47:57.402Z,14.49
2024-02-22T16:50:47.673Z,14.47
2024-02-22T16:53:32.839Z,14.72
2024-02-22T16:56:18.511Z,14.41
2024-02-22T16:59:05.304Z,14.57
2024-02-22T17:01:53.341Z,14.56
2024-02-22T17:04:38.651Z,14.08
2024-02-22T17:07:24.262Z,14.18
2024-02-22T17:10:10.372Z,13.53
2024-02-22T17:12:55.613Z,13.62
2024-02-22T17:18:23.055Z,12.90
2024-02-22T17:21:15.189Z,12.84
2024-02-22T17:24:00.826Z,12.97
2024-02-22T17:26:46.254Z,12.65
2024-02-22T17:29:31.395Z,13.03
2024-02-22T17:32:16.533Z,13.12
2024-02-22T17:35:03.199Z,13.03
2024-02-22T17:37:48.929Z,12.90
2024-02-22T17:40:34.805Z,12.90
2024-02-22T17:43:20.408Z,12.97
2024-02-22T17:46:06.306Z,12.32
2024-02-22T17:48:55.946Z,12.59
2024-02-22T17:51:50.144Z,12.73
2024-02-22T17:54:41.007Z,13.05
2024-02-22T17:57:27.189Z,13.15
2024-02-22T18:00:13.830Z,13.20
2024-02-22T18:03:03.508Z,13.22
2024-02-22T18:05:50.289Z,12.99
2024-02-22T18:08:38.334Z,12.95
2024-02-22T18:11:24.085Z,12.89
2024-02-22T18:14:09.351Z,12.73
2024-02-22T18:16:55.212Z,12.59
2024-02-22T18:19:40.886Z,12.69
2024-02-22T18:22:27.726Z,12.51
2024-02-22T18:25:12.944Z,12.92
2024-02-22T18:27:58.316Z,12.55
2024-02-22T18:30:45.057Z,12.76
2024-02-22T18:33:30.805Z,12.76
2024-02-22T18:36:17.692Z,12.50
2024-02-22T18:39:03.019Z,12.63
2024-02-22T18:41:48.593Z,12.47
2024-02-22T18:44:35.862Z,12.47
2024-02-22T18:47:21.442Z,12.39
2024-02-22T18:50:07.413Z,12.20
2024-02-22T18:52:52.817Z,12.26
2024-02-22T18:55:41.297Z,12.18
2024-02-22T18:58:26.697Z,11.73
2024-02-22T19:01:15.006Z,11.69
2024-02-22T19:04:00.966Z,11.47
2024-02-22T19:06:46.690Z,11.37
2024-02-22T19:09:32.506Z,10.59
2024-02-22T19:12:21.124Z,10.84
2024-02-22T19:15:09.560Z,10.82
2024-02-22T19:17:54.890Z,10.38
2024-02-22T19:20:40.393Z,10.38
2024-02-22T19:23:26.445Z,10.36
2024-02-22T19:26:12.681Z,10.18
2024-02-22T19:28:58.932Z,10.50
2024-02-22T19:31:44.053Z,10.64
2024-02-22T19:34:29.883Z,10.74
2024-02-22T19:37:15.050Z,10.57
2024-02-22T19:40:01.193Z,10.68
2024-02-22T19:42:47.059Z,10.41
2024-02-22T19:45:32.487Z,10.23
2024-02-22T19:48:18.090Z,10.14
2024-02-22T19:51:03.545Z,9.92
2024-02-22T19:53:49.637Z,10.38
2024-02-22T19:56:34.979Z,9.97
2024-02-22T19:59:20.068Z,10.14
2024-02-22T20:02:08.291Z,9.86
2024-02-22T20:04:53.937Z,9.96
2024-02-22T20:07:40.630Z,10.17
2024-02-22T20:10:27.331Z,10.04
2024-02-22T20:13:14.647Z,10.21
2024-02-22T20:15:59.973Z,10.33
2024-02-22T20:18:47.722Z,10.29
2024-02-22T20:21:35.491Z,10.46
2024-02-22T20:24:21.804Z,10.54
2024-02-22T20:27:07.168Z,10.07
2024-02-22T20:29:53.732Z,10.01
2024-02-22T20:32:40.027Z,9.88
2024-02-22T20:35:26.468Z,9.82
2024-02-22T20:38:12.316Z,9.89
2024-02-22T20:40:58.413Z,9.91
2024-02-22T20:43:44.033Z,9.67
2024-02-22T20:46:30.503Z,9.66
2024-02-22T20:49:16.200Z,9.69
2024-02-22T20:52:02.075Z,9.58
2024-02-22T20:54:48.076Z,9.61
2024-02-22T20:57:33.234Z,9.38
2024-02-22T21:00:18.772Z,9.23
2024-02-22T21:03:06.250Z,8.92
2024-02-22T21:05:51.870Z,8.93
2024-02-22T21:08:40.422Z,8.91
2024-02-22T21:11:26.298Z,8.76
2024-02-22T21:14:11.853Z,8.99
2024-02-22T21:16:57.559Z,8.87
2024-02-22T21:19:45.099Z,8.95
2024-02-22T21:22:30.858Z,8.96
2024-02-22T21:25:16.196Z,8.85
2024-02-22T21:28:01.600Z,8.86
2024-02-22T21:30:47.597Z,8.42
2024-02-22T21:33:32.996Z,8.25
2024-02-22T21:36:18.274Z,8.19
2024-02-22T21:39:07.124Z,8.26
2024-02-22T21:41:52.642Z,8.21
2024-02-22T21:44:37.716Z,8.27
2024-02-22T21:47:23.634Z,7.90
2024-02-22T21:50:09.916Z,8.06
2024-02-22T21:52:55.310Z,8.14
2024-02-22T21:55:41.953Z,7.68
2024-02-22T21:58:29.400Z,7.84
2024-02-22T22:01:14.637Z,7.62
2024-02-22T22:04:00.024Z,7.69
2024-02-22T22:06:45.369Z,7.43
2024-02-22T22:09:30.848Z,7.55
2024-02-22T22:12:16.355Z,7.83
2024-02-22T22:15:05.406Z,7.94
2024-02-22T22:17:50.834Z,7.91
2024-02-22T22:20:36.202Z,8.14
2024-02-22T22:23:22.149Z,8.03
2024-02-22T22:26:07.992Z,7.93
2024-02-22T22:28:53.728Z,8.01
2024-02-22T22:31:45.744Z,8.06
2024-02-22T22:34:33.541Z,8.16
2024-02-22T22:37:21.056Z,8.14
2024-02-22T22:40:11.303Z,7.89
2024-02-22T22:42:56.439Z,8.21
2024-02-22T22:45:41.813Z,8.28
2024-02-22T22:48:27.363Z,8.01
2024-02-22T22:51:13.302Z,8.33
2024-02-22T22:53:58.512Z,8.39
2024-02-22T22:56:43.581Z,8.50
2024-02-22T22:59:28.788Z,8.34
2024-02-22T23:02:14.348Z,8.57
2024-02-22T23:04:59.726Z,8.63
2024-02-22T23:07:47.973Z,8.82
2024-02-22T23:10:33.529Z,8.78
2024-02-22T23:13:18.966Z,8.61
2024-02-22T23:16:05.614Z,8.80
2024-02-22T23:18:50.904Z,8.89
2024-02-22T23:21:38.021Z,8.93
2024-02-22T23:24:23.671Z,8.31
2024-02-22T23:27:08.961Z,9.00
2024-02-22T23:29:54.135Z,8.89
2024-02-22T23:32:39.767Z,9.06
2024-02-22T23:35:25.626Z,8.98
2024-02-22T23:38:10.958Z,9.01
2024-02-22T23:41:10.072Z,9.11
2024-02-22T23:44:01.917Z,9.18
2024-02-22T23:46:47.477Z,8.98
2024-02-22T23:49:33.804Z,9.26
2024-02-22T23:52:18.861Z,9.28
2024-02-22T23:55:05.172Z,9.10
2024-02-22T23:57:50.627Z,9.27
